Time;durP1;ratioP1;P1;durP2;ratioP2;P2;SDS_P1;SDS_P2;PMS_P1;PMS_P2;Temp;Humidity;BMP_temperature;BMP_pressure;BME280_temperature;BME280_humidity;BME280_pressure;Samples;Min_cycle;Max_cycle;Signal;HPM_P1;HPM_P2
2022/06/09 00:00:14;;;;;;;8.98;5.90;;;;;;;19.25;65.34;98901.31;7712527;32;40710;-78
2022/06/09 00:04:36;;;;;;;12.02;6.55;;;;;;;19.30;64.73;98904.59;7711396;32;38678;-79
2022/06/09 00:08:53;;;;;;;11.37;6.30;;;;;;;19.39;64.24;98896.16;7711586;32;37995;-79
2022/06/09 00:13:09;;;;;;;9.80;6.35;;;;;;;19.35;64.18;98897.22;7712161;32;39802;-79
2022/06/09 00:17:25;;;;;;;13.57;6.28;;;;;;;19.22;64.71;98891.75;7712536;32;40772;-79
2022/06/09 00:21:42;;;;;;;8.93;5.90;;;;;;;19.23;64.79;98892.53;7712243;32;37893;-80
2022/06/09 00:25:58;;;;;;;10.25;6.60;;;;;;;19.14;65.15;98884.41;7712514;32;37018;-78
2022/06/09 00:30:18;;;;;;;9.88;6.28;;;;;;;19.26;64.53;98880.78;7712235;32;39276;-79
2022/06/09 00:34:35;;;;;;;10.00;6.45;;;;;;;19.49;63.90;98878.28;7712399;32;40868;-79
2022/06/09 00:38:51;;;;;;;9.05;6.35;;;;;;;19.14;65.69;98874.19;7712166;32;38417;-80
2022/06/09 00:43:08;;;;;;;11.25;6.72;;;;;;;18.92;65.89;98874.69;7712223;32;37216;-79
2022/06/09 00:47:30;;;;;;;10.45;6.65;;;;;;;18.93;65.91;98881.81;7712189;32;39927;-78
2022/06/09 00:51:50;;;;;;;15.48;6.82;;;;;;;18.89;66.15;98880.94;7711469;32;39876;-80
2022/06/09 00:56:08;;;;;;;9.68;6.95;;;;;;;18.95;66.04;98890.56;7711329;32;38224;-78
2022/06/09 01:00:29;;;;;;;15.90;6.47;;;;;;;19.10;65.49;98884.28;7712028;32;37034;-78
2022/06/09 01:04:48;;;;;;;10.35;6.65;;;;;;;18.87;65.98;98877.72;7710900;32;39388;-78
2022/06/09 01:09:10;;;;;;;17.75;7.70;;;;;;;18.93;65.48;98879.06;7711765;32;39986;-78
2022/06/09 01:13:27;;;;;;;12.03;6.70;;;;;;;18.72;66.32;98874.47;7711806;32;38693;-79
2022/06/09 01:18:32;;;;;;;16.02;7.12;;;;;;;18.91;65.49;98886.91;7711907;32;37217;-79
2022/06/09 01:23:16;;;;;;;19.65;7.97;;;;;;;18.76;65.98;98880.94;7695894;32;39928;-79
2022/06/09 01:27:57;;;;;;;18.77;7.93;;;;;;;18.70;66.65;98887.84;7711739;32;40756;-79
2022/06/09 01:32:34;;;;;;;11.90;6.75;;;;;;;18.86;66.91;98881.63;7711740;32;38347;-80
2022/06/09 01:37:12;;;;;;;19.17;8.57;;;;;;;18.71;67.87;98878.41;7710599;32;37097;-80
2022/06/09 01:41:28;;;;;;;20.52;8.48;;;;;;;18.98;67.36;98873.28;7711667;32;40028;-80
2022/06/09 01:45:58;;;;;;;12.02;7.22;;;;;;;18.94;67.64;98869.62;7711513;32;40490;-79
2022/06/09 01:50:38;;;;;;;8.52;6.20;;;;;;;18.91;68.37;98871.13;7710477;32;38010;-78
2022/06/09 01:54:55;;;;;;;13.85;7.25;;;;;;;18.95;68.30;98866.53;7710337;32;37792;-78
2022/06/09 01:59:18;;;;;;;11.12;8.07;;;;;;;19.01;68.40;98874.56;7711358;32;39470;-79
2022/06/09 02:03:39;;;;;;;12.85;8.32;;;;;;;19.00;68.76;98868.22;7711005;32;39601;-79
2022/06/09 02:07:59;;;;;;;10.18;7.35;;;;;;;19.23;67.92;98860.22;7710019;32;37961;-79
2022/06/09 02:12:22;;;;;;;10.35;7.45;;;;;;;19.16;68.19;98870.25;7710270;32;35609;-78
2022/06/09 02:16:38;;;;;;;10.13;7.25;;;;;;;19.14;67.78;98868.66;7711308;32;39355;-78
2022/06/09 02:21:10;;;;;;;13.32;7.28;;;;;;;19.13;67.63;98872.56;7711145;32;39809;-77
2022/06/09 02:25:26;;;;;;;11.25;8.07;;;;;;;19.24;67.31;98872.06;7684313;32;37682;-78
2022/06/09 02:29:43;;;;;;;11.35;7.15;;;;;;;19.17;67.27;98860.81;7684210;32;37011;-77
2022/06/09 02:33:59;;;;;;;13.13;7.47;;;;;;;19.20;67.08;98868.41;7684307;32;39789;-78
2022/06/09 02:38:17;;;;;;;13.93;8.50;;;;;;;19.13;67.21;98864.25;7684162;32;40950;-78
2022/06/09 02:42:33;;;;;;;15.70;8.18;;;;;;;19.31;66.67;98870.28;7683846;32;38594;-80
2022/06/09 02:46:49;;;;;;;12.80;8.57;;;;;;;19.27;67.01;98865.81;7684026;32;37193;-79
2022/06/09 02:51:29;;;;;;;15.65;8.68;;;;;;;19.27;67.25;98877.69;7684652;32;39346;-79
2022/06/09 02:55:46;;;;;;;13.30;8.80;;;;;;;19.18;67.55;98876.22;7710444;32;39947;-79
2022/06/09 03:00:04;;;;;;;15.02;8.27;;;;;;;19.05;67.80;98892.84;7710262;32;38596;-78
2022/06/09 03:04:20;;;;;;;12.05;8.55;;;;;;;19.27;66.92;98887.94;7710283;32;36071;-78
2022/06/09 03:08:37;;;;;;;12.70;7.87;;;;;;;19.00;68.23;98890.31;7709793;32;39744;-78
2022/06/09 03:12:54;;;;;;;20.85;9.13;;;;;;;19.20;67.71;98898.78;7709979;32;40138;-78
2022/06/09 03:17:11;;;;;;;13.10;8.73;;;;;;;19.24;67.97;98888.63;7711456;32;37963;-79
2022/06/09 03:21:27;;;;;;;21.27;11.15;;;;;;;19.35;67.72;98895.28;7713022;32;37158;-80
2022/06/09 03:25:44;;;;;;;15.65;10.30;;;;;;;19.21;68.60;98895.66;7713120;32;40122;-80
2022/06/09 03:30:01;;;;;;;13.70;9.20;;;;;;;19.34;68.53;98885.38;7712850;32;40683;-80
2022/06/09 03:34:20;;;;;;;14.57;8.65;;;;;;;19.31;68.72;98880.53;7712921;32;38764;-81
2022/06/09 03:38:40;;;;;;;14.07;9.02;;;;;;;19.32;68.78;98882.16;7713191;32;37176;-80
2022/06/09 03:42:58;;;;;;;16.77;10.00;;;;;;;19.50;68.09;98886.19;7724479;32;39028;-80
2022/06/09 03:47:14;;;;;;;16.40;10.55;;;;;;;19.47;68.52;98884.16;7712917;32;40990;-78
2022/06/09 03:51:31;;;;;;;19.60;10.43;;;;;;;19.33;68.88;98881.81;7712657;32;38034;-78
2022/06/09 03:55:48;;;;;;;14.45;9.85;;;;;;;19.49;68.66;98883.81;7712853;32;37199;-77
2022/06/09 04:00:06;;;;;;;18.02;12.27;;;;;;;19.62;68.33;98893.63;7712747;32;39385;-78
2022/06/09 04:04:22;;;;;;;20.08;12.37;;;;;;;19.41;69.57;98893.84;7712538;32;40738;-78
2022/06/09 04:08:39;;;;;;;20.58;12.88;;;;;;;19.68;68.91;98892.22;7712324;32;38760;-78
2022/06/09 04:12:55;;;;;;;25.50;12.70;;;;;;;19.68;69.22;98894.19;7712587;32;36935;-77
2022/06/09 04:17:14;;;;;;;20.77;12.95;;;;;;;19.94;68.44;98892.88;7712448;32;39394;-77
2022/06/09 04:21:32;;;;;;;20.80;12.63;;;;;;;20.05;68.51;98882.88;7710755;32;39998;-78
2022/06/09 04:25:48;;;;;;;19.75;12.57;;;;;;;20.02;68.98;98878.06;7711148;32;38060;-78
2022/06/09 04:30:06;;;;;;;29.70;15.43;;;;;;;20.36;68.83;98881.25;7712038;32;37999;-78
2022/06/09 04:34:22;;;;;;;39.60;19.55;;;;;;;20.43;68.72;98886.97;7712353;32;40108;-79
2022/06/09 04:38:39;;;;;;;39.67;21.65;;;;;;;20.59;69.23;98892.47;7712260;32;40002;-78
2022/06/09 04:42:55;;;;;;;41.13;23.33;;;;;;;20.67;69.59;98891.50;7712024;32;38059;-80
2022/06/09 04:47:12;;;;;;;43.25;24.52;;;;;;;20.87;69.42;98900.66;7712196;32;37391;-78
2022/06/09 04:51:29;;;;;;;40.95;22.15;;;;;;;20.60;70.54;98902.38;7711885;32;39460;-79
2022/06/09 04:55:45;;;;;;;39.08;22.67;;;;;;;20.96;69.05;98901.22;7712053;32;39964;-78
2022/06/09 05:00:03;;;;;;;39.78;23.70;;;;;;;20.74;69.73;98902.72;7711869;32;38783;-78
2022/06/09 05:04:19;;;;;;;42.40;22.65;;;;;;;20.93;69.17;98904.72;7711617;32;37215;-79
2022/06/09 05:08:35;;;;;;;36.35;22.05;;;;;;;21.11;68.65;98901.53;7712307;32;40028;-79
2022/06/09 05:12:51;;;;;;;34.67;21.37;;;;;;;21.31;68.08;98905.09;7711725;32;40812;-80
2022/06/09 05:17:08;;;;;;;33.42;20.05;;;;;;;21.13;68.24;98908.31;7711713;32;38766;-77
2022/06/09 05:21:24;;;;;;;29.23;19.27;;;;;;;21.42;67.22;98902.53;7711595;32;37321;-77
2022/06/09 05:25:40;;;;;;;31.23;18.87;;;;;;;21.37;66.58;98900.88;7711674;32;39321;-78
2022/06/09 05:29:57;;;;;;;30.55;19.62;;;;;;;21.31;66.69;98918.97;7711605;32;40014;-78
2022/06/09 05:34:13;;;;;;;31.87;18.25;;;;;;;21.28;67.28;98919.69;7711563;32;38266;-78
2022/06/09 05:47:39;;;;;;;24.15;16.00;;;;;;;22.07;65.18;98922.00;7710916;32;40844;-78
2022/06/09 05:51:56;;;;;;;23.73;16.15;;;;;;;21.67;65.73;98928.81;7710985;32;38089;-78
2022/06/09 05:56:12;;;;;;;24.55;14.95;;;;;;;21.57;66.18;98929.41;7710659;32;37918;-78
2022/06/09 06:00:28;;;;;;;20.02;13.30;;;;;;;21.73;65.64;98927.34;7710961;32;40050;-77
2022/06/09 06:04:45;;;;;;;22.80;14.93;;;;;;;22.00;64.40;98927.44;7711230;32;40804;-78
2022/06/09 06:09:09;;;;;;;27.77;15.77;;;;;;;22.16;64.80;98929.28;7711120;32;38740;-77
2022/06/09 06:13:25;;;;;;;22.60;14.57;;;;;;;22.03;64.70;98937.00;7710643;32;38202;-76
2022/06/09 06:17:41;;;;;;;21.17;13.85;;;;;;;22.30;64.88;98926.75;7710372;32;40131;-74
2022/06/09 06:21:58;;;;;;;20.42;14.05;;;;;;;21.78;65.78;98937.31;7709916;32;39906;-76
2022/06/09 06:26:14;;;;;;;20.02;14.35;;;;;;;22.92;63.01;98936.81;7709712;32;38760;-75
2022/06/09 06:30:30;;;;;;;19.62;13.32;;;;;;;23.16;61.68;98939.19;7709568;32;37631;-75
2022/06/09 06:34:47;;;;;;;17.35;11.63;;;;;;;22.92;63.09;98945.16;7710377;32;39378;-81
2022/06/09 06:39:04;;;;;;;17.98;11.73;;;;;;;23.28;61.72;98951.22;7710792;32;40624;-77
2022/06/09 06:43:21;;;;;;;14.60;10.05;;;;;;;23.34;61.81;98933.84;7710205;32;38630;-78
2022/06/09 06:47:38;;;;;;;14.52;9.65;;;;;;;23.52;59.55;98945.16;7710594;32;37720;-77
2022/06/09 06:51:56;;;;;;;14.60;10.57;;;;;;;23.75;58.23;98935.88;7708846;32;40004;-78
2022/06/09 06:56:12;;;;;;;21.48;9.88;;;;;;;23.26;59.89;98943.28;7710049;32;40198;-77
2022/06/09 07:00:28;;;;;;;19.67;10.10;;;;;;;23.30;60.26;98946.09;7708834;32;38664;-77
2022/06/09 07:04:44;;;;;;;14.95;10.57;;;;;;;23.10;60.67;98943.47;7709629;32;37169;-78
2022/06/09 07:09:01;;;;;;;17.87;10.68;;;;;;;23.27;60.24;98947.66;7709561;32;39940;-77
2022/06/09 07:13:17;;;;;;;14.18;9.48;;;;;;;23.23;59.71;98944.84;7709584;32;39616;-77
2022/06/09 07:17:33;;;;;;;16.90;10.15;;;;;;;23.28;60.58;98951.22;7709645;32;38711;-77
2022/06/09 07:21:49;;;;;;;14.05;8.55;;;;;;;23.36;59.56;98952.94;7709396;32;38252;-77
2022/06/09 07:26:05;;;;;;;16.10;10.68;;;;;;;23.26;59.31;98954.38;7709618;32;40052;-76
2022/06/09 07:30:23;;;;;;;15.73;10.02;;;;;;;23.01;60.82;98956.81;7709359;32;40825;-77
2022/06/09 07:34:39;;;;;;;13.85;9.32;;;;;;;23.32;60.52;98965.97;7720671;32;38792;-77
2022/06/09 07:38:55;;;;;;;15.98;10.60;;;;;;;23.63;59.99;98962.00;7708991;32;36925;-77
2022/06/09 07:43:12;;;;;;;15.77;9.98;;;;;;;23.34;59.64;98975.56;7708687;32;39357;-77
2022/06/09 07:47:28;;;;;;;14.40;9.18;;;;;;;23.30;60.14;98968.34;7709087;32;39821;-78
2022/06/09 07:51:44;;;;;;;13.80;8.25;;;;;;;23.55;59.56;98963.87;7708704;32;38780;-74
2022/06/09 07:56:02;;;;;;;14.00;9.15;;;;;;;23.75;59.34;98967.31;7708772;32;36489;-78
2022/06/09 08:00:21;;;;;;;14.07;8.57;;;;;;;23.88;58.09;98976.22;7708845;32;39985;-78
2022/06/09 08:04:37;;;;;;;12.48;8.57;;;;;;;23.90;57.56;98973.84;7710717;32;39943;-77
2022/06/09 08:08:55;;;;;;;15.45;8.73;;;;;;;23.93;57.45;98970.31;7712617;32;36148;-76
2022/06/09 08:13:13;;;;;;;17.42;8.50;;;;;;;24.09;58.29;98969.25;7711490;32;36236;-78
2022/06/09 08:17:30;;;;;;;11.93;8.32;;;;;;;24.20;57.31;98972.97;7711521;32;39366;-77
2022/06/09 08:21:46;;;;;;;11.82;8.27;;;;;;;23.95;58.08;98973.50;7711349;32;41061;-76
2022/06/09 08:26:07;;;;;;;14.75;8.10;;;;;;;24.20;56.22;98970.19;7708958;32;36303;-77
2022/06/09 08:30:24;;;;;;;12.02;8.38;;;;;;;24.21;56.64;98960.62;7710374;32;37169;-77
2022/06/09 08:34:40;;;;;;;13.90;9.15;;;;;;;24.35;58.69;98960.78;7708558;32;39443;-76
2022/06/09 08:38:56;;;;;;;14.15;9.20;;;;;;;24.60;57.49;98960.19;7708921;32;39580;-76
2022/06/09 08:43:37;;;;;;;15.20;8.85;;;;;;;25.12;57.21;98952.53;7710878;32;37692;-76
2022/06/09 08:47:55;;;;;;;12.23;8.70;;;;;;;25.06;55.78;98950.50;7710752;32;36920;-77
2022/06/09 08:52:51;;;;;;;11.90;7.87;;;;;;;25.67;56.01;98937.66;7711167;32;40419;-77
2022/06/09 08:57:15;;;;;;;11.93;7.85;;;;;;;26.18;54.05;98933.00;7711850;32;40802;-78
2022/06/09 09:01:41;;;;;;;12.68;6.80;;;;;;;26.28;54.18;98936.19;7710989;32;38039;-77
2022/06/09 09:06:20;;;;;;;11.88;7.00;;;;;;;26.56;51.16;98930.59;7710931;32;37691;-78
2022/06/09 09:11:08;;;;;;;9.05;6.00;;;;;;;26.90;50.05;98927.34;7711957;32;39241;-79
2022/06/09 09:15:40;;;;;;;11.77;6.43;;;;;;;26.83;49.29;98921.78;7711055;32;39702;-79
2022/06/09 09:20:12;;;;;;;8.15;5.22;;;;;;;26.71;49.15;98914.59;7710683;32;38875;-79
2022/06/09 09:24:32;;;;;;;9.80;5.70;;;;;;;27.39;47.81;98907.22;7711917;32;37786;-79
2022/06/09 09:29:00;;;;;;;9.60;5.12;;;;;;;27.26;48.90;98902.06;7711774;32;39256;-79
2022/06/09 09:33:19;;;;;;;6.87;4.78;;;;;;;27.37;46.09;98909.63;7711947;32;40046;-79
2022/06/09 09:37:44;;;;;;;15.63;5.00;;;;;;;27.17;47.50;98902.50;7711776;32;37758;-78
2022/06/09 09:42:13;;;;;;;9.48;4.30;;;;;;;27.22;47.84;98890.09;7711718;32;37856;-80
2022/06/09 09:46:34;;;;;;;7.20;3.75;;;;;;;27.27;44.96;98889.66;7710723;32;39438;-79
2022/06/09 09:51:00;;;;;;;5.37;3.15;;;;;;;27.32;44.60;98894.06;7709480;32;39879;-79
2022/06/09 09:55:29;;;;;;;7.57;3.67;;;;;;;27.71;46.28;98891.03;7707242;32;37843;-77
2022/06/09 09:59:54;;;;;;;4.75;3.15;;;;;;;27.70;43.20;98895.06;7700486;32;36748;-77
2022/06/09 10:09:18;;;;;;;7.45;3.92;;;;;;;27.81;43.60;98899.78;7706399;32;40416;-78
2022/06/09 10:13:34;;;;;;;9.93;3.85;;;;;;;27.62;42.45;98893.50;7689561;32;38468;-76
2022/06/09 10:18:20;;;;;;;10.73;4.43;;;;;;;27.16;44.65;98894.50;7695145;32;37502;-77
2022/06/09 10:23:16;;;;;;;8.02;4.80;;;;;;;27.23;44.55;98888.09;7706702;32;40124;-78
2022/06/09 10:27:37;;;;;;;5.60;3.80;;;;;;;26.87;45.60;98894.63;7709673;32;39967;-79
2022/06/09 10:32:12;;;;;;;8.63;4.53;;;;;;;26.49;46.33;98902.66;7707721;32;38629;-78
2022/06/09 10:36:49;;;;;;;8.07;4.30;;;;;;;26.92;44.05;98894.19;7710616;32;37318;-79
2022/06/09 10:41:11;;;;;;;6.05;3.92;;;;;;;27.34;43.52;98886.88;7708618;32;40019;-80
2022/06/09 10:45:45;;;;;;;8.48;4.30;;;;;;;27.71;43.59;98887.44;7707964;32;40602;-78
2022/06/09 10:55:18;;;;;;;6.60;3.97;;;;;;;27.20;43.68;98884.09;7694441;32;37825;-78
2022/06/09 10:59:51;;;;;;;5.90;3.70;;;;;;;27.44;44.09;98887.19;7709890;32;39418;-80
2022/06/09 11:04:12;;;;;;;5.12;3.60;;;;;;;28.15;42.81;98890.75;7710139;32;39810;-78
2022/06/09 11:08:52;;;;;;;7.68;3.80;;;;;;;28.84;43.14;98875.69;7708742;32;37926;-81
2022/06/09 11:13:17;;;;;;;6.70;3.97;;;;;;;28.17;41.51;98865.94;7709588;32;37915;-77
2022/06/09 11:17:48;;;;;;;3.42;2.80;;;;;;;29.34;40.83;98851.88;7701409;32;40148;-80
2022/06/09 11:22:47;;;;;;;6.40;3.10;;;;;;;30.12;39.71;98851.91;7708879;32;39625;-80
2022/06/09 11:27:24;;;;;;;5.25;3.50;;;;;;;30.48;35.71;98837.25;7706877;32;37749;-81
2022/06/09 11:31:55;;;;;;;5.50;3.15;;;;;;;30.54;35.70;98840.34;7709484;32;37901;-80
2022/06/09 11:36:27;;;;;;;5.68;3.17;;;;;;;30.19;37.76;98836.94;7706845;32;39370;-79
2022/06/09 11:40:48;;;;;;;5.70;3.35;;;;;;;30.51;37.30;98825.13;7709319;32;39671;-79
2022/06/09 11:45:23;;;;;;;7.43;3.33;;;;;;;30.08;36.46;98819.44;7709812;32;38307;-79
2022/06/09 11:49:53;;;;;;;5.05;3.00;;;;;;;29.95;36.98;98822.09;7710610;32;37751;-80
2022/06/09 11:54:48;;;;;;;5.80;3.03;;;;;;;30.05;36.20;98797.84;7712679;32;39335;-80
2022/06/09 11:59:11;;;;;;;4.97;2.85;;;;;;;30.41;35.86;98798.03;7712841;32;40705;-80
2022/06/09 12:04:06;;;;;;;4.82;3.28;;;;;;;30.64;36.61;98799.19;7711709;32;37981;-80
2022/06/09 12:08:42;;;;;;;4.40;3.00;;;;;;;30.33;35.73;98794.50;7713121;32;37109;-81
2022/06/09 12:13:22;;;;;;;6.22;3.25;;;;;;;30.50;32.76;98789.00;7711737;32;39508;-80
2022/06/09 12:17:53;;;;;;;5.70;3.80;;;;;;;30.21;36.94;98789.50;7712710;32;39916;-80
2022/06/09 12:22:45;;;;;;;7.55;3.40;;;;;;;29.17;39.30;98794.75;7712463;32;38702;-80
2022/06/09 12:27:21;;;;;;;9.88;5.25;;;;;;;28.56;39.70;98803.13;7712540;32;37455;-80
2022/06/09 12:31:38;;;;;;;11.50;6.35;;;;;;;27.78;43.71;98800.59;7712490;32;39235;-80
2022/06/09 12:35:59;;;;;;;9.85;6.43;;;;;;;26.71;47.44;98804.78;7712287;32;40796;-81
2022/06/09 12:40:20;;;;;;;9.77;6.68;;;;;;;26.73;47.34;98811.59;7711496;32;37531;-82
2022/06/09 12:44:45;;;;;;;8.40;6.55;;;;;;;26.16;49.40;98829.22;7712326;32;36778;-81
2022/06/09 12:49:13;;;;;;;11.52;7.00;;;;;;;25.91;50.32;98817.28;7711229;32;40093;-79
2022/06/09 12:53:38;;;;;;;11.07;7.10;;;;;;;25.61;52.43;98826.81;7710993;32;39996;-80
2022/06/09 12:58:18;;;;;;;13.70;8.00;;;;;;;25.44;52.64;98831.97;7712193;32;37660;-80
2022/06/09 13:02:38;;;;;;;16.52;9.25;;;;;;;25.03;56.87;98837.78;7712159;32;37120;-80
2022/06/09 13:06:56;;;;;;;11.52;8.30;;;;;;;24.50;58.11;98857.81;7712009;32;39466;-81
2022/06/09 13:16:23;;;;;;;5.65;2.28;;;;;;;23.08;60.40;98856.06;7711899;32;38421;-80
2022/06/09 13:20:51;;;;;;;6.82;2.10;;;;;;;21.08;62.36;98933.53;7710915;32;37034;-79
2022/06/09 13:25:13;;;;;;;10.13;2.92;;;;;;;17.02;73.06;99035.22;7711933;32;39384;-77
2022/06/09 13:29:37;;;;;;;15.25;2.90;;;;;;;17.82;74.58;98970.06;7710532;32;39926;-76
2022/06/09 13:34:04;;;;;;;7.40;3.00;;;;;;;18.20;74.15;98969.03;7710651;32;37844;-76
2022/06/09 13:38:32;;;;;;;7.53;2.60;;;;;;;18.19;74.50;98990.28;7710813;32;37017;-76
2022/06/09 13:42:52;;;;;;;11.88;2.45;;;;;;;18.58;74.03;98990.00;7711804;32;40043;-76
2022/06/09 13:47:20;;;;;;;6.72;1.98;;;;;;;18.74;73.00;98981.81;7710499;32;40264;-76
2022/06/09 13:51:55;;;;;;;5.53;2.45;;;;;;;18.45;73.81;99002.16;7711514;32;37957;-76
2022/06/09 13:56:13;;;;;;;7.35;2.30;;;;;;;18.46;72.50;99029.41;7711720;32;37377;-76
2022/06/09 14:00:42;;;;;;;4.50;1.75;;;;;;;18.35;72.97;98992.38;7710959;32;41367;-76
2022/06/09 14:04:59;;;;;;;2.30;1.80;;;;;;;18.52;72.77;98977.56;7711443;32;40793;-77
2022/06/09 14:09:17;;;;;;;5.30;2.10;;;;;;;18.32;74.55;98977.31;7711382;32;37549;-76
2022/06/09 14:13:34;;;;;;;3.90;2.10;;;;;;;18.66;74.43;98975.28;7711436;32;37947;-77
2022/06/09 14:17:52;;;;;;;4.28;2.12;;;;;;;18.82;74.19;98974.56;7711313;32;40062;-76
2022/06/09 14:22:09;;;;;;;3.03;1.75;;;;;;;19.11;74.07;98957.75;7711246;32;39826;-76
2022/06/09 14:26:33;;;;;;;4.45;2.33;;;;;;;19.34;72.55;98971.03;7710032;32;37823;-77
2022/06/09 14:30:49;;;;;;;7.10;2.92;;;;;;;18.89;71.62;98963.78;7711022;32;37852;-77
2022/06/09 14:35:06;;;;;;;4.68;2.25;;;;;;;18.78;70.95;98999.28;7711194;32;40100;-76
2022/06/09 14:39:23;;;;;;;5.30;2.30;;;;;;;18.86;70.68;99003.91;7710952;32;41427;-77
2022/06/09 14:43:39;;;;;;;7.05;2.25;;;;;;;19.03;71.04;98993.78;7710832;32;37855;-76
2022/06/09 14:47:56;;;;;;;5.28;2.42;;;;;;;19.09;70.07;98987.69;7710698;32;37037;-76
2022/06/09 14:52:16;;;;;;;6.60;2.22;;;;;;;19.11;69.72;99003.91;7710741;32;39299;-76
2022/06/09 14:56:38;;;;;;;3.72;2.35;;;;;;;19.06;69.19;98999.41;7710747;32;39977;-75
2022/06/09 15:00:54;;;;;;;6.10;2.08;;;;;;;18.97;69.82;98989.63;7709426;32;38681;-76
2022/06/09 15:05:11;;;;;;;4.82;2.30;;;;;;;18.51;71.59;98989.75;7710411;32;37788;-76
2022/06/09 15:09:27;;;;;;;5.05;2.08;;;;;;;18.37;72.75;99024.00;7710360;32;39848;-76
2022/06/09 15:13:43;;;;;;;2.45;1.90;;;;;;;18.91;71.07;99042.34;7712211;32;39789;-77
2022/06/09 15:18:00;;;;;;;6.62;3.00;;;;;;;18.25;73.98;99083.84;7713332;32;37893;-77
2022/06/09 15:22:16;;;;;;;9.77;2.85;;;;;;;17.62;75.79;99102.03;7713468;32;37250;-77
2022/06/09 15:26:32;;;;;;;7.22;2.58;;;;;;;18.49;72.97;99050.00;7713236;32;39992;-77
2022/06/09 15:30:55;;;;;;;8.65;2.90;;;;;;;18.81;71.90;99022.66;7713123;32;39670;-77
2022/06/09 15:35:12;;;;;;;4.65;2.25;;;;;;;18.85;71.75;99034.63;7713123;32;39770;-77
2022/06/09 15:39:28;;;;;;;7.87;3.28;;;;;;;18.88;70.96;99003.56;7713074;32;37155;-77
2022/06/09 15:43:45;;;;;;;18.85;11.35;;;;;;;18.82;71.02;98999.44;7713251;32;40013;-77
2022/06/09 15:48:02;;;;;;;4.03;2.35;;;;;;;18.93;70.97;99017.16;7724337;32;40787;-78
2022/06/09 15:52:20;;;;;;;4.80;2.37;;;;;;;19.00;71.16;99022.09;7712994;32;37992;-77
2022/06/09 15:56:36;;;;;;;7.40;2.90;;;;;;;19.13;70.69;99010.69;7713406;32;37975;-77
2022/06/09 16:00:53;;;;;;;8.07;4.28;;;;;;;19.24;69.87;99024.00;7712835;32;40064;-77
2022/06/09 16:05:09;;;;;;;3.25;1.95;;;;;;;19.33;69.98;99024.69;7712805;32;40787;-75
2022/06/09 16:09:25;;;;;;;4.72;2.90;;;;;;;19.43;68.54;99013.13;7712860;32;38610;-76
2022/06/09 16:13:41;;;;;;;7.87;3.40;;;;;;;19.41;68.74;99014.66;7712814;32;37088;-77
2022/06/09 16:17:58;;;;;;;4.40;3.17;;;;;;;19.43;69.45;99020.63;7712711;32;40135;-77
2022/06/09 16:22:14;;;;;;;3.62;2.15;;;;;;;19.31;69.10;99004.88;7712332;32;40776;-78
2022/06/09 16:26:30;;;;;;;6.00;2.60;;;;;;;19.18;68.73;99017.09;7712481;32;37873;-77
2022/06/09 16:30:47;;;;;;;4.40;2.47;;;;;;;19.10;69.79;99007.81;7712416;32;37823;-78
2022/06/09 16:35:04;;;;;;;3.72;2.55;;;;;;;19.06;70.33;99029.81;7712535;32;40090;-78
2022/06/09 16:39:20;;;;;;;3.53;2.33;;;;;;;19.23;69.60;99023.22;7711497;32;39994;-78
2022/06/09 16:43:36;;;;;;;4.20;2.30;;;;;;;19.11;70.43;99012.19;7711096;32;37972;-78
2022/06/09 16:47:53;;;;;;;4.12;1.75;;;;;;;18.81;71.17;99011.59;7712340;32;36962;-77
2022/06/09 16:52:10;;;;;;;2.70;2.00;;;;;;;19.09;70.25;99020.81;7712366;32;39383;-77
2022/06/09 16:56:26;;;;;;;4.43;2.22;;;;;;;18.95;70.89;99025.87;7712380;32;39985;-78
2022/06/09 17:00:43;;;;;;;4.53;2.12;;;;;;;18.83;71.11;99025.91;7712109;32;37684;-77
2022/06/09 17:04:59;;;;;;;5.68;2.20;;;;;;;18.76;70.44;99021.75;7712054;32;36990;-76
2022/06/09 17:09:16;;;;;;;3.55;2.17;;;;;;;18.98;69.72;99027.16;7712313;32;40044;-77
2022/06/09 17:13:32;;;;;;;4.07;2.45;;;;;;;18.97;70.58;99045.69;7712000;32;40710;-77
2022/06/09 17:17:49;;;;;;;5.30;2.05;;;;;;;19.23;69.49;99048.09;7711946;32;37706;-77
2022/06/09 17:22:05;;;;;;;4.53;2.62;;;;;;;19.29;69.08;99057.72;7711963;32;37021;-77
2022/06/09 17:26:22;;;;;;;5.22;2.20;;;;;;;19.37;69.00;99056.00;7711706;32;40316;-77
2022/06/09 17:30:40;;;;;;;2.15;1.90;;;;;;;19.36;68.86;99059.12;7711676;32;40801;-77
2022/06/09 17:34:56;;;;;;;3.22;2.20;;;;;;;19.27;68.84;99054.50;7710869;32;38577;-77
2022/06/09 17:39:13;;;;;;;5.80;2.20;;;;;;;18.92;69.99;99054.19;7711839;32;36984;-77
2022/06/09 17:43:30;;;;;;;12.52;3.50;;;;;;;19.27;69.29;99060.03;7711720;32;39271;-77
2022/06/09 17:47:49;;;;;;;6.28;3.50;;;;;;;19.32;69.31;99064.53;7711605;32;40772;-76
2022/06/09 17:52:05;;;;;;;34.88;19.40;;;;;;;19.37;68.40;99064.28;7711594;32;37619;-77
2022/06/09 17:56:21;;;;;;;122.45;65.87;;;;;;;19.45;68.30;99063.34;7711557;32;38039;-77
2022/06/09 18:00:41;;;;;;;9.48;3.72;;;;;;;19.68;67.33;99062.84;7711399;32;40190;-77
2022/06/09 18:04:57;;;;;;;6.62;3.10;;;;;;;19.43;67.78;99079.47;7711491;32;39996;-77
2022/06/09 18:09:13;;;;;;;4.28;2.30;;;;;;;19.40;67.73;99090.41;7711218;32;38056;-77
2022/06/09 18:13:30;;;;;;;11.45;6.78;;;;;;;19.32;68.15;99083.88;7711354;32;37372;-77
2022/06/09 18:17:47;;;;;;;6.47;4.03;;;;;;;19.46;67.81;99084.31;7711263;32;39311;-77
2022/06/09 18:22:03;;;;;;;6.20;3.83;;;;;;;19.09;69.12;99081.59;7711306;32;39661;-77
2022/06/09 18:26:21;;;;;;;22.70;16.70;;;;;;;19.19;69.33;99082.28;7700441;32;330158;-78
2022/06/09 18:30:40;;;;;;;42.58;28.80;;;;;;;19.39;68.94;99086.84;7709709;32;37290;-77
2022/06/09 18:34:56;;;;;;;16.60;10.77;;;;;;;19.45;68.05;99099.28;7710901;32;39435;-76
2022/06/09 18:39:13;;;;;;;7.00;2.95;;;;;;;19.49;68.01;99105.72;7710470;32;40791;-76
2022/06/09 18:43:29;;;;;;;4.60;3.30;;;;;;;19.37;68.42;99100.22;7709978;32;37925;-77
2022/06/09 18:47:49;;;;;;;54.17;35.83;;;;;;;19.42;68.36;99110.22;7710216;32;37125;-77
2022/06/09 18:52:05;;;;;;;9.88;5.90;;;;;;;19.43;68.78;99111.84;7709389;32;38997;-71
2022/06/09 18:56:22;;;;;;;5.03;3.70;;;;;;;19.48;68.79;99106.06;7710520;32;40040;-75
2022/06/09 19:00:40;;;;;;;6.20;3.90;;;;;;;19.44;69.21;99107.94;7710416;32;37990;-78
2022/06/09 19:04:56;;;;;;;13.62;7.72;;;;;;;19.48;68.95;99106.88;7708993;32;35918;-75
2022/06/09 19:09:13;;;;;;;13.75;6.35;;;;;;;19.33;70.03;99118.63;7710151;32;40101;-80
2022/06/09 19:13:29;;;;;;;10.35;4.82;;;;;;;19.12;71.10;99129.81;7708690;32;39601;-79
2022/06/09 19:17:46;;;;;;;5.32;2.92;;;;;;;19.44;69.63;99125.31;7708263;32;37866;-79
2022/06/09 19:22:02;;;;;;;4.07;3.22;;;;;;;19.47;69.25;99132.09;7708949;32;37736;-79
2022/06/09 19:26:20;;;;;;;8.95;3.53;;;;;;;19.35;69.83;99132.94;7709844;32;40234;-78
2022/06/09 19:30:41;;;;;;;11.00;5.87;;;;;;;19.48;69.51;99119.91;7709533;32;40840;-78
2022/06/09 19:34:58;;;;;;;8.40;5.18;;;;;;;19.57;69.53;99122.53;7709488;32;37860;-77
2022/06/09 19:39:15;;;;;;;7.32;3.67;;;;;;;19.61;69.58;99128.97;7709520;32;38012;-78
2022/06/09 19:43:31;;;;;;;7.43;4.10;;;;;;;19.61;69.58;99131.72;7709261;32;40025;-78
2022/06/09 19:47:50;;;;;;;7.82;3.70;;;;;;;19.55;69.32;99135.91;7709233;32;40908;-78
2022/06/09 19:52:06;;;;;;;11.45;3.58;;;;;;;19.37;70.20;99140.84;7707550;32;37911;-78
2022/06/09 19:56:24;;;;;;;6.28;3.35;;;;;;;19.59;69.45;99131.28;7708998;32;37087;-78
2022/06/09 20:00:40;;;;;;;7.12;3.30;;;;;;;19.81;68.40;99136.31;7712059;32;39251;-79
2022/06/09 20:04:57;;;;;;;4.43;3.12;;;;;;;19.53;69.20;99136.25;7712484;32;40762;-79
2022/06/09 20:09:13;;;;;;;5.12;3.55;;;;;;;19.73;68.54;99151.09;7712521;32;38016;-77
2022/06/09 20:13:29;;;;;;;6.30;3.80;;;;;;;19.49;69.12;99147.19;7712529;32;37105;-77
2022/06/09 20:17:46;;;;;;;10.57;3.22;;;;;;;19.66;68.42;99145.31;7712571;32;40091;-81
2022/06/09 20:22:03;;;;;;;11.48;6.55;;;;;;;19.49;68.78;99155.50;7712357;32;39957;-78
2022/06/09 20:26:23;;;;;;;17.73;7.43;;;;;;;19.48;68.77;99153.06;7712485;32;37595;-74
2022/06/09 20:30:40;;;;;;;7.18;4.00;;;;;;;19.60;68.33;99163.31;7711711;32;37184;-76
2022/06/09 20:34:56;;;;;;;39.30;26.27;;;;;;;19.56;68.26;99160.44;7712305;32;40141;-75
2022/06/09 20:39:12;;;;;;;7.53;3.50;;;;;;;19.63;68.48;99160.66;7712317;32;40800;-79